createdAt,value
2023-02-23T00:01:14.229Z,100790.0
2023-02-23T00:03:11.416Z,100790.0
2023-02-23T00:05:11.009Z,100800.0
2023-02-23T00:07:10.797Z,100790.0
2023-02-23T00:09:20.738Z,100790.0
2023-02-23T00:11:11.017Z,100800.0
2023-02-23T00:13:10.124Z,100800.0
2023-02-23T00:15:10.799Z,100790.0
2023-02-23T00:17:13.214Z,100800.0
2023-02-23T00:19:08.553Z,100800.0
2023-02-23T00:21:08.084Z,100800.0
2023-02-23T00:23:08.072Z,100800.0
2023-02-23T00:25:09.455Z,100790.0
2023-02-23T00:27:07.134Z,100790.0
2023-02-23T00:29:10.183Z,100790.0
2023-02-23T00:31:06.753Z,100790.0
2023-02-23T00:33:06.504Z,100790.0
2023-02-23T00:35:10.490Z,100790.0
2023-02-23T00:37:07.577Z,100790.0
2023-02-23T00:39:17.117Z,100790.0
2023-02-23T00:41:06.127Z,100790.0
2023-02-23T00:43:04.320Z,100790.0
2023-02-23T00:45:10.025Z,100790.0
2023-02-23T00:47:03.652Z,100790.0
2023-02-23T00:49:04.195Z,100790.0
2023-02-23T00:51:04.702Z,100790.0
2023-02-23T00:53:03.945Z,100790.0
2023-02-23T00:55:03.019Z,100790.0
2023-02-23T00:57:01.786Z,100790.0
2023-02-23T00:59:01.536Z,100790.0
2023-02-23T01:01:01.251Z,100790.0
2023-02-23T01:03:00.885Z,100790.0
2023-02-23T01:05:00.351Z,100800.0
2023-02-23T01:07:03.121Z,100800.0
2023-02-23T01:09:04.278Z,100800.0
2023-02-23T01:11:05.922Z,100800.0
2023-02-23T01:12:59.059Z,100800.0
2023-02-23T01:14:58.724Z,100820.0
2023-02-23T01:16:59.399Z,100820.0
2023-02-23T01:19:00.894Z,100820.0
2023-02-23T01:38:56.100Z,100820.0
2023-02-23T01:40:54.488Z,100820.0
2023-02-23T01:42:56.222Z,100820.0
2023-02-23T01:45:13.431Z,100820.0
2023-02-23T01:48:55.623Z,100820.0
2023-02-23T01:50:56.189Z,100820.0
2023-02-23T01:52:53.962Z,100820.0
2023-02-23T01:54:54.930Z,100830.0
2023-02-23T01:58:54.689Z,100830.0
2023-02-23T02:00:54.894Z,100820.0
2023-02-23T02:02:51.308Z,100820.0
2023-02-23T02:04:51.177Z,100820.0
2023-02-23T02:06:54.352Z,100820.0
2023-02-23T02:10:54.934Z,100820.0
2023-02-23T02:12:53.517Z,100820.0
2023-02-23T02:14:51.007Z,100820.0
2023-02-23T02:17:02.591Z,100820.0
2023-02-23T02:19:02.295Z,100820.0
2023-02-23T02:21:07.082Z,100820.0
2023-02-23T02:23:08.725Z,100820.0
2023-02-23T02:25:10.312Z,100820.0
2023-02-23T02:27:00.338Z,100820.0
2023-02-23T02:29:05.933Z,100820.0
2023-02-23T02:31:05.759Z,100820.0
2023-02-23T02:33:02.559Z,100820.0
2023-02-23T02:35:02.032Z,100820.0
2023-02-23T02:37:04.584Z,100810.0
2023-02-23T02:40:52.341Z,100810.0
2023-02-23T02:42:55.208Z,100810.0
2023-02-23T02:44:53.904Z,100810.0
2023-02-23T02:46:48.148Z,100810.0
2023-02-23T02:48:49.437Z,100810.0
2023-02-23T02:52:46.505Z,100810.0
2023-02-23T02:54:48.036Z,100810.0
2023-02-23T02:56:43.686Z,100810.0
2023-02-23T02:58:42.632Z,100810.0
2023-02-23T03:00:54.069Z,100810.0
2023-02-23T03:02:50.558Z,100810.0
2023-02-23T03:04:50.191Z,100820.0
2023-02-23T03:06:56.398Z,100820.0
2023-02-23T03:08:55.801Z,100810.0
2023-02-23T03:10:55.543Z,100810.0
2023-02-23T03:12:54.771Z,100810.0
2023-02-23T03:14:58.255Z,100810.0
2023-02-23T03:16:56.306Z,100810.0
2023-02-23T03:19:01.995Z,100820.0
2023-02-23T03:20:52.963Z,100810.0
2023-02-23T03:22:56.315Z,100810.0
2023-02-23T03:24:51.583Z,100820.0
2023-02-23T03:26:49.571Z,100820.0
2023-02-23T03:28:54.430Z,100820.0
2023-02-23T03:30:56.960Z,100820.0
2023-02-23T03:32:50.810Z,100820.0
2023-02-23T03:34:50.051Z,100820.0
2023-02-23T03:38:49.181Z,100820.0
2023-02-23T03:40:47.680Z,100820.0
2023-02-23T03:42:46.503Z,100820.0
2023-02-23T03:44:48.507Z,100830.0
2023-02-23T03:46:45.524Z,100830.0
2023-02-23T03:48:45.317Z,100830.0
2023-02-23T03:50:50.018Z,100830.0
2023-02-23T03:52:48.717Z,100830.0
2023-02-23T03:54:46.704Z,100830.0
2023-02-23T03:56:45.257Z,100840.0
2023-02-23T03:58:46.873Z,100840.0
2023-02-23T04:00:45.679Z,100840.0
2023-02-23T04:02:44.973Z,100840.0
2023-02-23T04:04:40.891Z,100850.0
2023-02-23T04:06:45.336Z,100850.0
2023-02-23T04:10:40.337Z,100850.0
2023-02-23T04:12:45.006Z,100850.0
2023-02-23T04:14:35.570Z,100850.0
2023-02-23T04:16:29.652Z,100860.0
2023-02-23T04:18:30.328Z,100860.0
2023-02-23T04:20:27.418Z,100860.0
2023-02-23T04:22:27.007Z,100860.0
2023-02-23T04:24:26.701Z,100860.0
2023-02-23T04:26:26.565Z,100860.0
2023-02-23T04:28:27.219Z,100870.0
2023-02-23T04:30:27.391Z,100870.0
2023-02-23T04:32:25.310Z,100870.0
2023-02-23T04:34:24.924Z,100870.0
2023-02-23T04:36:25.810Z,100880.0
2023-02-23T04:38:24.497Z,100880.0
2023-02-23T04:40:25.086Z,100880.0
2023-02-23T04:42:23.481Z,100880.0
2023-02-23T04:44:23.177Z,100880.0
2023-02-23T04:46:22.869Z,100880.0
2023-02-23T04:48:24.112Z,100880.0
2023-02-23T04:50:22.791Z,100880.0
2023-02-23T04:52:21.890Z,100880.0
2023-02-23T04:54:21.440Z,100880.0
2023-02-23T04:56:21.040Z,100890.0
2023-02-23T04:58:20.796Z,100880.0
2023-02-23T05:00:20.587Z,100890.0
2023-02-23T05:02:20.469Z,100890.0
2023-02-23T05:04:19.681Z,100890.0
2023-02-23T05:06:20.033Z,100890.0
2023-02-23T05:08:19.067Z,100890.0
2023-02-23T05:10:18.775Z,100890.0
2023-02-23T05:12:18.632Z,100890.0
2023-02-23T05:14:18.395Z,100890.0
2023-02-23T05:16:17.703Z,100890.0
2023-02-23T05:18:17.386Z,100890.0
2023-02-23T05:20:17.156Z,100890.0
2023-02-23T05:22:16.688Z,100900.0
2023-02-23T05:24:16.642Z,100900.0
2023-02-23T05:26:16.403Z,100900.0
2023-02-23T05:28:15.653Z,100900.0
2023-02-23T05:30:15.572Z,100900.0
2023-02-23T05:32:14.943Z,100910.0
2023-02-23T05:34:15.878Z,100910.0
2023-02-23T05:36:16.730Z,100910.0
2023-02-23T05:38:14.033Z,100910.0
2023-02-23T05:40:13.957Z,100910.0
2023-02-23T05:42:13.001Z,100920.0
2023-02-23T05:44:12.996Z,100920.0
2023-02-23T05:46:15.413Z,100920.0
2023-02-23T05:48:12.437Z,100920.0
2023-02-23T05:50:11.881Z,100930.0
2023-02-23T05:52:11.465Z,100920.0
2023-02-23T05:54:12.516Z,100930.0
2023-02-23T05:56:13.180Z,100920.0
2023-02-23T05:58:10.283Z,100920.0
2023-02-23T06:00:12.455Z,100920.0
2023-02-23T06:02:09.757Z,100930.0
2023-02-23T06:04:09.506Z,100930.0
2023-02-23T06:06:08.872Z,100930.0
2023-02-23T06:08:08.686Z,100920.0
2023-02-23T06:10:09.027Z,100920.0
2023-02-23T06:12:08.172Z,100930.0
2023-02-23T06:14:07.809Z,100930.0
2023-02-23T06:16:08.080Z,100930.0
2023-02-23T06:18:08.067Z,100930.0
2023-02-23T06:20:07.363Z,100930.0
2023-02-23T06:22:06.215Z,100940.0
2023-02-23T06:24:06.152Z,100940.0
2023-02-23T06:26:07.350Z,100940.0
2023-02-23T06:28:06.633Z,100950.0
2023-02-23T06:30:05.976Z,100950.0
2023-02-23T06:32:05.016Z,100950.0
2023-02-23T06:34:04.194Z,100950.0
2023-02-23T06:36:04.699Z,100950.0
2023-02-23T06:38:04.681Z,100950.0
2023-02-23T06:40:03.802Z,100960.0
2023-02-23T06:42:02.981Z,100960.0
2023-02-23T06:44:02.370Z,100960.0
2023-02-23T06:46:03.617Z,100960.0
2023-02-23T06:48:01.703Z,100970.0
2023-02-23T06:50:03.040Z,100960.0
2023-02-23T06:52:00.987Z,100970.0
2023-02-23T06:54:00.542Z,100970.0
2023-02-23T06:56:00.544Z,100970.0
2023-02-23T06:57:59.959Z,100970.0
2023-02-23T07:00:00.719Z,100970.0
2023-02-23T07:01:59.387Z,100970.0
2023-02-23T07:03:58.898Z,100980.0
2023-02-23T07:05:58.644Z,100970.0
2023-02-23T07:07:58.159Z,100980.0
2023-02-23T07:09:57.788Z,100980.0
2023-02-23T07:11:58.663Z,100980.0
2023-02-23T07:13:57.718Z,100980.0
2023-02-23T07:15:56.974Z,100980.0
2023-02-23T07:17:56.562Z,100980.0
2023-02-23T07:19:56.472Z,100990.0
2023-02-23T07:21:55.797Z,100990.0
2023-02-23T07:23:55.449Z,101000.0
2023-02-23T07:25:55.601Z,101000.0
2023-02-23T07:27:55.277Z,101000.0
2023-02-23T07:29:54.434Z,101000.0
2023-02-23T07:31:54.456Z,101010.0
2023-02-23T07:33:54.267Z,101010.0
2023-02-23T07:35:53.333Z,101020.0
2023-02-23T07:37:54.813Z,101030.0
2023-02-23T07:39:52.627Z,101020.0
2023-02-23T07:41:52.178Z,101030.0
2023-02-23T07:43:52.014Z,101030.0
2023-02-23T07:45:51.965Z,101030.0
2023-02-23T07:47:51.314Z,101030.0
2023-02-23T07:49:51.074Z,101030.0
2023-02-23T07:51:50.530Z,101030.0
2023-02-23T07:53:50.213Z,101040.0
2023-02-23T07:55:55.173Z,101050.0
2023-02-23T07:57:49.732Z,101050.0
2023-02-23T07:59:49.513Z,101050.0
2023-02-23T08:03:49.519Z,101060.0
2023-02-23T08:05:48.121Z,101060.0
2023-02-23T08:07:47.783Z,101070.0
2023-02-23T08:09:47.877Z,101070.0
2023-02-23T08:11:47.307Z,101070.0
2023-02-23T08:13:46.751Z,101070.0
2023-02-23T08:15:46.678Z,101080.0
2023-02-23T08:17:46.035Z,101080.0
2023-02-23T08:19:45.721Z,101080.0
2023-02-23T08:21:45.342Z,101090.0
2023-02-23T08:23:45.218Z,101090.0
2023-02-23T08:25:44.676Z,101090.0
2023-02-23T08:29:44.488Z,101090.0
2023-02-23T08:31:44.216Z,101090.0
2023-02-23T08:33:43.845Z,101090.0
2023-02-23T08:35:43.326Z,101100.0
2023-02-23T08:37:42.523Z,101100.0
2023-02-23T08:39:43.689Z,101100.0
2023-02-23T08:41:42.269Z,101100.0
2023-02-23T08:43:41.993Z,101090.0
2023-02-23T08:45:41.215Z,101090.0
2023-02-23T08:49:40.558Z,101090.0
2023-02-23T08:51:40.470Z,101090.0
2023-02-23T08:53:40.119Z,101100.0
2023-02-23T08:55:39.505Z,101100.0
2023-02-23T08:57:39.086Z,101100.0
2023-02-23T08:59:40.175Z,101100.0
2023-02-23T09:01:38.638Z,101110.0
2023-02-23T09:03:40.210Z,101110.0
2023-02-23T09:05:38.687Z,101110.0
2023-02-23T09:07:39.094Z,101110.0
2023-02-23T09:11:36.712Z,101120.0
2023-02-23T09:13:36.544Z,101120.0
2023-02-23T09:15:37.644Z,101120.0
2023-02-23T09:17:36.674Z,101130.0
2023-02-23T09:19:35.405Z,101130.0
2023-02-23T09:21:35.247Z,101130.0
2023-02-23T09:23:35.545Z,101130.0
2023-02-23T09:25:42.191Z,101130.0
2023-02-23T09:27:33.878Z,101130.0
2023-02-23T09:29:35.954Z,101130.0
2023-02-23T09:31:33.624Z,101130.0
2023-02-23T09:33:32.937Z,101140.0
2023-02-23T09:35:35.228Z,101140.0
2023-02-23T09:37:32.258Z,101150.0
2023-02-23T09:39:38.129Z,101150.0
2023-02-23T09:41:51.220Z,101150.0
2023-02-23T09:43:41.517Z,101150.0
2023-02-23T09:45:38.340Z,101150.0
2023-02-23T09:47:40.212Z,101150.0
2023-02-23T09:49:36.969Z,101160.0
2023-02-23T09:51:36.453Z,101160.0
2023-02-23T09:53:36.000Z,101160.0
2023-02-23T09:55:29.794Z,101160.0
2023-02-23T09:57:36.078Z,101160.0
2023-02-23T09:59:30.333Z,101160.0
2023-02-23T10:01:44.930Z,101160.0
2023-02-23T10:03:30.793Z,101170.0
2023-02-23T10:05:31.934Z,101170.0
2023-02-23T10:07:41.243Z,101170.0
2023-02-23T10:09:41.532Z,101170.0
2023-02-23T10:11:33.317Z,101170.0
2023-02-23T10:13:38.660Z,101170.0
2023-02-23T10:15:36.179Z,101170.0
2023-02-23T10:17:38.251Z,101170.0
2023-02-23T10:19:34.106Z,101170.0
2023-02-23T10:21:32.571Z,101160.0
2023-02-23T10:23:31.353Z,101160.0
2023-02-23T10:25:27.686Z,101170.0
2023-02-23T10:27:31.580Z,101170.0
2023-02-23T10:29:28.780Z,101170.0
2023-02-23T10:31:27.786Z,101170.0
2023-02-23T10:35:22.834Z,101170.0
2023-02-23T10:37:22.788Z,101170.0
2023-02-23T10:39:21.583Z,101170.0
2023-02-23T10:41:22.234Z,101170.0
2023-02-23T10:43:21.143Z,101160.0
2023-02-23T10:45:22.664Z,101170.0
2023-02-23T10:47:24.232Z,101170.0
2023-02-23T10:49:24.521Z,101170.0
2023-02-23T10:51:25.414Z,101170.0
2023-02-23T10:53:23.414Z,101170.0
2023-02-23T10:55:23.649Z,101170.0
2023-02-23T10:57:20.814Z,101160.0
2023-02-23T10:59:19.334Z,101160.0
2023-02-23T11:01:32.585Z,101160.0
2023-02-23T11:03:24.509Z,101160.0
2023-02-23T11:07:18.571Z,101150.0
2023-02-23T11:09:33.041Z,101150.0
2023-02-23T11:13:20.641Z,101160.0
2023-02-23T11:15:39.391Z,101160.0
2023-02-23T11:17:27.628Z,101150.0
2023-02-23T11:19:23.198Z,101160.0
2023-02-23T11:21:22.641Z,101150.0
2023-02-23T11:23:20.907Z,101150.0
2023-02-23T11:25:24.852Z,101150.0
2023-02-23T11:27:20.257Z,101150.0
2023-02-23T11:29:18.607Z,101140.0
2023-02-23T11:31:16.598Z,101140.0
2023-02-23T11:33:17.855Z,101140.0
2023-02-23T11:35:25.995Z,101140.0
2023-02-23T11:37:19.488Z,101130.0
2023-02-23T11:39:19.369Z,101130.0
2023-02-23T11:41:21.357Z,101130.0
2023-02-23T11:43:15.515Z,101130.0
2023-02-23T11:45:15.255Z,101130.0
2023-02-23T11:47:21.668Z,101120.0
2023-02-23T11:49:19.460Z,101120.0
2023-02-23T11:51:09.231Z,101110.0
2023-02-23T11:53:14.475Z,101110.0
2023-02-23T11:55:17.497Z,101110.0
2023-02-23T11:57:08.436Z,101100.0
2023-02-23T11:59:17.311Z,101100.0
2023-02-23T12:01:12.544Z,101100.0
2023-02-23T12:03:20.835Z,101100.0
2023-02-23T12:05:16.244Z,101100.0
2023-02-23T12:07:21.662Z,101100.0
2023-02-23T12:09:17.452Z,101110.0
2023-02-23T12:11:12.656Z,101100.0
2023-02-23T12:13:22.154Z,101100.0
2023-02-23T12:15:13.851Z,101100.0
2023-02-23T12:17:13.166Z,101090.0
2023-02-23T12:19:19.581Z,101090.0
2023-02-23T12:21:17.893Z,101080.0
2023-02-23T12:23:09.798Z,101070.0
2023-02-23T12:25:13.185Z,101070.0
2023-02-23T12:27:11.894Z,101070.0
2023-02-23T12:31:15.865Z,101060.0
2023-02-23T12:35:10.134Z,101060.0
2023-02-23T12:37:15.692Z,101070.0
2023-02-23T12:39:07.161Z,101070.0
2023-02-23T12:41:09.534Z,101070.0
2023-02-23T12:43:11.055Z,101070.0
2023-02-23T12:45:05.562Z,101060.0
2023-02-23T12:47:06.837Z,101060.0
2023-02-23T12:49:05.664Z,101060.0
2023-02-23T12:51:04.483Z,101060.0
2023-02-23T12:53:06.095Z,101060.0
2023-02-23T12:54:59.909Z,101060.0
2023-02-23T12:57:13.589Z,101060.0
2023-02-23T12:59:13.765Z,101060.0
2023-02-23T13:01:02.877Z,101060.0
2023-02-23T13:03:17.553Z,101060.0
2023-02-23T13:05:12.025Z,101050.0
2023-02-23T13:07:05.478Z,101060.0
2023-02-23T13:09:05.793Z,101060.0
2023-02-23T13:11:05.401Z,101070.0
2023-02-23T13:13:11.942Z,101070.0
2023-02-23T13:15:03.007Z,101070.0
2023-02-23T13:17:01.698Z,101060.0
2023-02-23T13:19:08.872Z,101060.0
2023-02-23T13:21:02.812Z,101070.0
2023-02-23T13:23:02.270Z,101060.0
2023-02-23T13:25:00.860Z,101070.0
2023-02-23T13:27:00.348Z,101070.0
2023-02-23T13:28:59.476Z,101060.0
2023-02-23T13:30:54.218Z,101060.0
2023-02-23T13:32:53.771Z,101050.0
2023-02-23T13:34:55.776Z,101050.0
2023-02-23T13:36:53.148Z,101050.0
2023-02-23T13:39:18.738Z,101050.0
2023-02-23T13:40:58.913Z,101050.0
2023-02-23T13:43:07.775Z,101050.0
2023-02-23T13:45:00.922Z,101050.0
2023-02-23T13:46:56.070Z,101050.0
2023-02-23T13:48:58.827Z,101050.0
2023-02-23T13:50:56.353Z,101050.0
2023-02-23T13:52:57.621Z,101050.0
2023-02-23T13:54:55.410Z,101060.0
2023-02-23T13:56:53.750Z,101060.0
2023-02-23T13:58:52.638Z,101060.0
2023-02-23T14:01:02.214Z,101060.0
2023-02-23T14:02:49.679Z,101070.0
2023-02-23T14:04:48.824Z,101070.0
2023-02-23T14:06:55.544Z,101060.0
2023-02-23T14:08:53.442Z,101070.0
2023-02-23T14:10:46.985Z,101060.0
2023-02-23T14:13:05.760Z,101070.0
2023-02-23T14:14:46.412Z,101060.0
2023-02-23T14:17:06.514Z,101060.0
2023-02-23T14:18:57.003Z,101060.0
2023-02-23T14:20:53.298Z,101060.0
2023-02-23T14:23:04.660Z,101060.0
2023-02-23T14:24:44.715Z,101070.0
2023-02-23T14:26:55.582Z,101060.0
2023-02-23T14:28:48.150Z,101070.0
2023-02-23T14:30:50.023Z,101070.0
2023-02-23T14:32:46.557Z,101070.0
2023-02-23T14:34:52.312Z,101060.0
2023-02-23T14:36:43.643Z,101070.0
2023-02-23T14:38:48.280Z,101060.0
2023-02-23T14:40:46.096Z,101060.0
2023-02-23T14:42:46.626Z,101070.0
2023-02-23T14:44:43.997Z,101070.0
2023-02-23T14:48:44.620Z,101080.0
2023-02-23T14:50:41.176Z,101070.0
2023-02-23T14:52:40.952Z,101070.0
2023-02-23T14:54:40.693Z,101070.0
2023-02-23T14:56:45.953Z,101070.0
2023-02-23T14:58:39.090Z,101070.0
2023-02-23T15:00:41.549Z,101070.0
2023-02-23T15:02:43.167Z,101070.0
2023-02-23T15:04:38.739Z,101080.0
2023-02-23T15:06:42.312Z,101080.0
2023-02-23T15:08:43.788Z,101080.0
2023-02-23T15:10:41.194Z,101080.0
2023-02-23T15:12:37.762Z,101080.0
2023-02-23T15:14:37.870Z,101080.0
2023-02-23T15:16:36.622Z,101070.0
2023-02-23T15:20:35.834Z,101070.0
2023-02-23T15:22:37.871Z,101080.0
2023-02-23T15:24:42.706Z,101080.0
2023-02-23T15:26:36.414Z,101080.0
2023-02-23T15:28:34.214Z,101080.0
2023-02-23T15:30:44.909Z,101080.0
2023-02-23T15:32:37.325Z,101070.0
2023-02-23T15:34:33.852Z,101080.0
2023-02-23T15:36:34.023Z,101070.0
2023-02-23T15:40:32.349Z,101080.0
2023-02-23T15:42:36.832Z,101080.0
2023-02-23T15:44:43.831Z,101080.0
2023-02-23T15:46:33.245Z,101080.0
2023-02-23T15:48:44.868Z,101080.0
2023-02-23T15:50:37.053Z,101080.0
2023-02-23T15:52:34.079Z,101080.0
2023-02-23T15:54:34.334Z,101080.0
2023-02-23T15:56:29.920Z,101080.0
2023-02-23T15:58:31.387Z,101080.0
2023-02-23T16:00:39.982Z,101080.0
2023-02-23T16:02:29.183Z,101080.0
2023-02-23T16:04:31.634Z,101080.0
2023-02-23T16:06:33.144Z,101080.0
2023-02-23T16:08:28.770Z,101080.0
2023-02-23T16:10:28.874Z,101080.0
2023-02-23T16:12:31.652Z,101080.0
2023-02-23T16:14:32.984Z,101080.0
2023-02-23T16:16:26.807Z,101070.0
2023-02-23T16:18:36.093Z,101070.0
2023-02-23T16:20:33.670Z,101070.0
2023-02-23T16:22:27.854Z,101070.0
2023-02-23T16:24:27.948Z,101080.0
2023-02-23T16:26:28.478Z,101070.0
2023-02-23T16:28:29.521Z,101080.0
2023-02-23T16:30:36.072Z,101080.0
2023-02-23T16:32:24.299Z,101080.0
2023-02-23T16:34:26.106Z,101080.0
2023-02-23T16:36:32.425Z,101090.0
2023-02-23T16:38:25.230Z,101090.0
2023-02-23T16:40:23.030Z,101080.0
2023-02-23T16:42:27.568Z,101080.0
2023-02-23T16:44:26.331Z,101080.0
2023-02-23T16:46:24.683Z,101080.0
2023-02-23T16:48:23.224Z,101080.0
2023-02-23T16:50:23.493Z,101080.0
2023-02-23T16:52:22.889Z,101080.0
2023-02-23T16:54:20.526Z,101080.0
2023-02-23T16:56:21.535Z,101080.0
2023-02-23T16:58:22.366Z,101080.0
2023-02-23T17:00:22.282Z,101080.0
2023-02-23T17:02:21.781Z,101080.0
2023-02-23T17:04:19.949Z,101080.0
2023-02-23T17:06:19.416Z,101090.0
2023-02-23T17:08:18.163Z,101090.0
2023-02-23T17:10:24.050Z,101090.0
2023-02-23T17:12:19.069Z,101090.0
2023-02-23T17:16:16.902Z,101100.0
2023-02-23T17:18:17.561Z,101090.0
2023-02-23T17:20:20.359Z,101090.0
2023-02-23T17:22:15.981Z,101090.0
2023-02-23T17:24:15.870Z,101090.0
2023-02-23T17:26:16.183Z,101100.0
2023-02-23T17:28:14.823Z,101100.0
2023-02-23T17:30:14.761Z,101100.0
2023-02-23T17:32:14.074Z,101100.0
2023-02-23T17:34:13.777Z,101100.0
2023-02-23T17:36:14.911Z,101100.0
2023-02-23T17:38:13.934Z,101110.0
2023-02-23T17:40:15.450Z,101100.0
2023-02-23T17:42:13.599Z,101100.0
2023-02-23T17:44:12.084Z,101110.0
2023-02-23T17:46:12.760Z,101110.0
2023-02-23T17:48:11.157Z,101110.0
2023-02-23T17:50:10.898Z,101110.0
2023-02-23T17:52:10.699Z,101110.0
2023-02-23T17:54:10.430Z,101110.0
2023-02-23T17:56:10.425Z,101120.0
2023-02-23T18:02:13.519Z,101120.0
2023-02-23T18:04:08.472Z,101120.0
2023-02-23T18:06:10.410Z,101110.0
2023-02-23T18:08:07.788Z,101120.0
2023-02-23T18:10:08.317Z,101110.0
2023-02-23T18:12:07.850Z,101120.0
2023-02-23T18:14:08.624Z,101120.0
2023-02-23T18:16:08.645Z,101110.0
2023-02-23T18:18:06.457Z,101120.0
2023-02-23T18:20:06.543Z,101110.0
2023-02-23T18:22:05.683Z,101110.0
2023-02-23T18:24:05.556Z,101120.0
2023-02-23T18:26:06.467Z,101110.0
2023-02-23T18:28:04.555Z,101110.0
2023-02-23T18:30:05.035Z,101110.0
2023-02-23T18:32:06.799Z,101110.0
2023-02-23T18:34:03.342Z,101100.0
2023-02-23T18:38:04.150Z,101110.0
2023-02-23T18:40:04.512Z,101110.0
2023-02-23T18:42:03.259Z,101110.0
2023-02-23T18:46:03.975Z,101110.0
2023-02-23T18:48:01.023Z,101100.0
2023-02-23T18:50:00.716Z,101100.0
2023-02-23T18:52:00.269Z,101100.0
2023-02-23T18:54:02.139Z,101100.0
2023-02-23T18:56:02.638Z,101090.0
2023-02-23T18:57:59.271Z,101100.0
2023-02-23T18:59:58.852Z,101090.0
2023-02-23T19:01:58.899Z,101090.0
2023-02-23T19:04:00.845Z,101090.0
2023-02-23T19:05:58.132Z,101090.0
2023-02-23T19:07:57.766Z,101090.0
2023-02-23T19:10:01.009Z,101090.0
2023-02-23T19:11:57.302Z,101080.0
2023-02-23T19:15:57.889Z,101090.0
2023-02-23T19:17:56.027Z,101090.0
2023-02-23T19:19:55.672Z,101090.0
2023-02-23T19:21:57.728Z,101090.0
2023-02-23T19:23:56.712Z,101090.0
2023-02-23T19:25:54.441Z,101090.0
2023-02-23T19:27:54.796Z,101090.0
2023-02-23T19:29:54.012Z,101090.0
2023-02-23T19:31:53.801Z,101080.0
2023-02-23T19:33:55.328Z,101090.0
2023-02-23T19:35:52.813Z,101090.0
2023-02-23T19:37:53.437Z,101090.0
2023-02-23T19:39:53.006Z,101090.0
2023-02-23T19:41:52.088Z,101090.0
2023-02-23T19:43:51.390Z,101080.0
2023-02-23T19:45:51.073Z,101090.0
2023-02-23T19:47:51.698Z,101080.0
2023-02-23T19:49:50.443Z,101080.0
2023-02-23T19:51:51.924Z,101080.0
2023-02-23T19:53:52.285Z,101080.0
2023-02-23T19:55:58.093Z,101080.0
2023-02-23T19:57:50.382Z,101080.0
2023-02-23T19:59:48.640Z,101070.0
2023-02-23T20:01:50.306Z,101070.0
2023-02-23T20:03:54.278Z,101080.0
2023-02-23T20:05:47.831Z,101080.0
2023-02-23T20:07:47.563Z,101080.0
2023-02-23T20:09:47.149Z,101080.0
2023-02-23T20:11:47.337Z,101070.0
2023-02-23T20:13:46.428Z,101080.0
2023-02-23T20:15:46.226Z,101080.0
2023-02-23T20:17:45.831Z,101080.0
2023-02-23T20:19:45.322Z,101080.0
2023-02-23T20:21:44.919Z,101080.0
2023-02-23T20:23:46.079Z,101090.0
2023-02-23T20:25:44.299Z,101090.0
2023-02-23T20:27:43.990Z,101100.0
2023-02-23T20:29:44.365Z,101100.0
2023-02-23T20:31:49.471Z,101100.0
2023-02-23T20:33:43.276Z,101100.0
2023-02-23T20:35:42.594Z,101110.0
2023-02-23T20:37:42.675Z,101110.0
2023-02-23T20:39:41.933Z,101110.0
2023-02-23T20:41:43.046Z,101110.0
2023-02-23T20:43:42.767Z,101110.0
2023-02-23T20:45:40.973Z,101120.0
2023-02-23T20:47:41.048Z,101110.0
2023-02-23T20:51:41.726Z,101110.0
2023-02-23T20:53:40.903Z,101110.0
2023-02-23T20:55:39.023Z,101100.0
2023-02-23T20:57:38.736Z,101110.0
2023-02-23T20:59:38.418Z,101110.0
2023-02-23T21:01:39.126Z,101110.0
2023-02-23T21:03:37.572Z,101110.0
2023-02-23T21:05:39.412Z,101100.0
2023-02-23T21:07:37.150Z,101100.0
2023-02-23T21:09:39.071Z,101110.0
2023-02-23T21:11:36.090Z,101110.0
2023-02-23T21:13:36.057Z,101100.0
2023-02-23T21:15:36.095Z,101100.0
2023-02-23T21:17:35.692Z,101100.0
2023-02-23T21:19:35.376Z,101100.0
2023-02-23T21:21:38.283Z,101100.0
2023-02-23T21:23:34.225Z,101100.0
2023-02-23T21:25:33.915Z,101100.0
2023-02-23T21:27:33.327Z,101100.0
2023-02-23T21:29:33.238Z,101100.0
2023-02-23T21:31:32.609Z,101100.0
2023-02-23T21:33:32.274Z,101100.0
2023-02-23T21:35:34.147Z,101100.0
2023-02-23T21:39:31.168Z,101100.0
2023-02-23T21:41:32.707Z,101100.0
2023-02-23T21:43:33.720Z,101100.0
2023-02-23T21:45:29.992Z,101100.0
2023-02-23T21:47:33.019Z,101090.0
2023-02-23T21:49:29.647Z,101080.0
2023-02-23T21:51:29.524Z,101070.0
2023-02-23T21:53:29.489Z,101070.0
2023-02-23T21:55:28.250Z,101070.0
2023-02-23T21:57:29.320Z,101060.0
2023-02-23T21:59:27.545Z,101060.0
2023-02-23T22:01:29.544Z,101060.0
2023-02-23T22:03:28.370Z,101070.0
2023-02-23T22:05:26.610Z,101070.0
2023-02-23T22:07:28.189Z,101070.0
2023-02-23T22:09:25.860Z,101080.0
2023-02-23T22:11:26.658Z,101080.0
2023-02-23T22:13:24.989Z,101080.0
2023-02-23T22:15:26.573Z,101080.0
2023-02-23T22:17:24.612Z,101080.0
2023-02-23T22:19:24.013Z,101080.0
2023-02-23T22:21:23.968Z,101080.0
2023-02-23T22:23:23.132Z,101080.0
2023-02-23T22:25:22.648Z,101080.0
2023-02-23T22:27:22.302Z,101080.0
2023-02-23T22:29:24.771Z,101080.0
2023-02-23T22:31:21.873Z,101080.0
2023-02-23T22:33:22.529Z,101080.0
2023-02-23T22:35:20.725Z,101080.0
2023-02-23T22:37:21.446Z,101080.0
2023-02-23T22:39:20.032Z,101080.0
2023-02-23T22:41:20.197Z,101080.0
2023-02-23T22:43:20.991Z,101070.0
2023-02-23T22:45:19.351Z,101070.0
2023-02-23T22:47:18.452Z,101080.0
2023-02-23T22:49:18.811Z,101080.0
2023-02-23T22:51:18.796Z,101080.0
2023-02-23T22:53:17.814Z,101070.0
2023-02-23T22:55:18.245Z,101070.0
2023-02-23T22:57:16.543Z,101070.0
2023-02-23T22:59:16.558Z,101070.0
2023-02-23T23:01:16.605Z,101070.0
2023-02-23T23:03:15.425Z,101070.0
2023-02-23T23:05:17.052Z,101070.0
2023-02-23T23:07:14.701Z,101070.0
2023-02-23T23:09:15.622Z,101070.0
2023-02-23T23:11:17.401Z,101070.0
2023-02-23T23:13:13.506Z,101070.0
2023-02-23T23:15:13.777Z,101070.0
2023-02-23T23:17:14.113Z,101070.0
2023-02-23T23:21:14.207Z,101060.0
2023-02-23T23:23:11.599Z,101070.0
2023-02-23T23:25:13.755Z,101070.0
2023-02-23T23:27:13.565Z,101070.0
2023-02-23T23:29:13.387Z,101070.0
2023-02-23T23:31:10.145Z,101070.0
2023-02-23T23:33:10.816Z,101080.0
2023-02-23T23:35:10.152Z,101070.0
2023-02-23T23:37:09.842Z,101070.0
2023-02-23T23:39:11.219Z,101070.0
2023-02-23T23:41:12.697Z,101070.0
2023-02-23T23:43:07.917Z,101070.0
2023-02-23T23:45:08.929Z,101070.0
2023-02-23T23:47:07.016Z,101070.0
2023-02-23T23:49:10.069Z,101060.0
2023-02-23T23:51:06.183Z,101060.0
2023-02-23T23:53:06.725Z,101060.0
2023-02-23T23:57:05.709Z,101060.0
2023-02-23T23:59:06.422Z,101050.0
